createdAt,value
2022-11-18T00:01:09.426Z,14.90
2022-11-18T00:03:37.897Z,16.33
2022-11-18T00:06:06.829Z,15.90
2022-11-18T00:08:34.974Z,16.45
2022-11-18T00:11:08.248Z,16.77
2022-11-18T00:13:53.643Z,16.25
2022-11-18T00:16:21.671Z,16.08
2022-11-18T00:18:49.757Z,15.88
2022-11-18T00:21:17.862Z,16.48
2022-11-18T00:23:45.858Z,15.50
2022-11-18T00:26:16.182Z,19.08
2022-11-18T00:28:44.277Z,15.35
2022-11-18T00:31:14.584Z,15.23
2022-11-18T00:33:42.899Z,17.85
2022-11-18T00:36:12.688Z,18.88
2022-11-18T00:38:41.354Z,16.73
2022-11-18T00:41:11.657Z,17.65
2022-11-18T00:43:40.766Z,20.08
2022-11-18T00:46:10.469Z,16.75
2022-11-18T00:48:38.738Z,16.55
2022-11-18T00:51:11.900Z,14.93
2022-11-18T00:53:39.967Z,14.55
2022-11-18T00:56:08.829Z,15.45
2022-11-18T00:58:37.119Z,15.55
2022-11-18T01:01:06.896Z,15.48
2022-11-18T01:03:35.057Z,15.57
2022-11-18T01:06:03.161Z,16.27
2022-11-18T01:08:31.182Z,16.23
2022-11-18T01:11:19.652Z,16.02
2022-11-18T01:13:49.921Z,18.35
2022-11-18T01:16:22.106Z,18.95
2022-11-18T01:18:50.402Z,17.35
2022-11-18T01:21:18.858Z,18.38
2022-11-18T01:23:46.956Z,16.95
2022-11-18T01:26:16.802Z,17.02
2022-11-18T01:28:45.471Z,17.63
2022-11-18T01:31:15.407Z,17.87
2022-11-18T01:33:45.382Z,18.80
2022-11-18T01:36:17.945Z,18.65
2022-11-18T01:38:46.246Z,16.15
2022-11-18T01:41:14.611Z,18.40
2022-11-18T01:43:52.533Z,17.30
2022-11-18T01:46:21.493Z,16.45
2022-11-18T01:48:55.092Z,19.75
2022-11-18T01:51:27.255Z,19.07
2022-11-18T01:54:01.064Z,17.35
2022-11-18T01:56:34.278Z,18.17
2022-11-18T01:59:07.525Z,17.50
2022-11-18T02:01:35.713Z,18.88
2022-11-18T02:04:05.516Z,19.00
2022-11-18T02:06:34.402Z,19.53
2022-11-18T02:09:02.738Z,18.75
2022-11-18T02:11:49.572Z,16.87
2022-11-18T02:14:19.717Z,18.17
2022-11-18T02:17:01.530Z,16.67
2022-11-18T02:20:00.721Z,20.02
2022-11-18T02:22:46.451Z,23.60
2022-11-18T02:25:21.405Z,17.67
2022-11-18T02:28:25.864Z,17.95
2022-11-18T02:31:01.842Z,17.20
2022-11-18T02:33:36.628Z,19.00
2022-11-18T02:36:11.050Z,19.23
2022-11-18T02:38:44.021Z,18.38
2022-11-18T02:41:15.813Z,17.73
2022-11-18T02:43:48.854Z,18.27
2022-11-18T02:46:22.058Z,18.95
2022-11-18T02:48:52.722Z,15.82
2022-11-18T02:51:26.309Z,18.27
2022-11-18T02:53:57.758Z,17.95
2022-11-18T02:56:27.789Z,19.35
2022-11-18T02:58:55.874Z,16.58
2022-11-18T03:01:29.612Z,18.30
2022-11-18T03:03:57.868Z,16.50
2022-11-18T03:06:30.925Z,17.55
2022-11-18T03:09:09.442Z,16.40
2022-11-18T03:11:44.246Z,18.95
2022-11-18T03:14:22.918Z,18.13
2022-11-18T03:17:00.673Z,17.77
2022-11-18T03:19:47.402Z,16.17
2022-11-18T03:22:22.750Z,15.05
2022-11-18T03:25:00.619Z,16.55
2022-11-18T03:27:33.135Z,17.00
2022-11-18T03:30:06.994Z,18.50
2022-11-18T03:32:41.442Z,17.35
2022-11-18T03:35:14.010Z,17.83
2022-11-18T03:37:44.470Z,15.85
2022-11-18T03:40:18.818Z,15.90
2022-11-18T03:42:50.847Z,16.25
2022-11-18T03:45:23.337Z,18.70
2022-11-18T03:47:56.946Z,17.95
2022-11-18T03:50:30.754Z,17.23
2022-11-18T03:52:59.926Z,18.00
2022-11-18T03:55:32.438Z,16.90
2022-11-18T03:58:06.350Z,16.83
2022-11-18T04:00:38.646Z,15.23
2022-11-18T04:03:08.309Z,15.48
2022-11-18T04:05:40.518Z,16.17
2022-11-18T04:08:13.093Z,17.40
2022-11-18T04:10:47.075Z,16.15
2022-11-18T04:13:19.657Z,17.08
2022-11-18T04:15:47.770Z,17.87
2022-11-18T04:18:17.174Z,18.50
2022-11-18T04:20:45.250Z,17.25
2022-11-18T04:23:13.510Z,14.53
2022-11-18T04:25:41.653Z,16.93
2022-11-18T04:28:10.261Z,17.80
2022-11-18T04:30:38.386Z,18.83
2022-11-18T04:33:06.498Z,17.53
2022-11-18T04:35:35.879Z,17.83
2022-11-18T04:38:05.028Z,17.02
2022-11-18T04:40:33.355Z,20.60
2022-11-18T04:43:01.387Z,16.43
2022-11-18T04:45:29.596Z,17.30
2022-11-18T04:48:03.066Z,20.48
2022-11-18T04:50:31.755Z,18.50
2022-11-18T04:53:01.153Z,17.03
2022-11-18T04:55:29.211Z,17.45
2022-11-18T04:57:57.306Z,19.77
2022-11-18T05:00:25.368Z,15.95
2022-11-18T05:02:53.402Z,16.15
2022-11-18T05:05:21.473Z,19.13
2022-11-18T05:07:49.561Z,17.57
2022-11-18T05:10:19.294Z,19.08
2022-11-18T05:12:48.991Z,18.58
2022-11-18T05:15:17.402Z,16.50
2022-11-18T05:17:45.488Z,17.73
2022-11-18T05:20:14.205Z,17.90
2022-11-18T05:22:42.538Z,17.33
2022-11-18T05:25:11.164Z,18.13
2022-11-18T05:27:40.578Z,19.33
2022-11-18T05:30:09.678Z,20.00
2022-11-18T05:32:37.725Z,18.87
2022-11-18T05:35:06.411Z,16.70
2022-11-18T05:37:34.797Z,17.50
2022-11-18T05:40:02.846Z,19.13
2022-11-18T05:42:48.225Z,17.30
2022-11-18T05:45:19.420Z,19.42
2022-11-18T05:48:04.671Z,19.80
2022-11-18T05:50:34.081Z,26.50
2022-11-18T05:53:02.905Z,18.47
2022-11-18T05:55:36.628Z,20.47
2022-11-18T05:58:04.644Z,21.38
2022-11-18T06:00:34.488Z,19.67
2022-11-18T06:03:03.569Z,23.70
2022-11-18T06:05:31.641Z,22.27
2022-11-18T06:07:59.768Z,22.43
2022-11-18T06:10:34.009Z,23.43
2022-11-18T06:13:05.851Z,22.17
2022-11-18T06:15:40.073Z,23.70
2022-11-18T06:18:11.259Z,23.73
2022-11-18T06:20:42.646Z,24.27
2022-11-18T06:23:10.785Z,22.27
2022-11-18T06:25:39.842Z,25.10
2022-11-18T06:28:08.246Z,24.47
2022-11-18T06:30:37.634Z,27.60
2022-11-18T06:33:05.713Z,27.10
2022-11-18T06:35:33.753Z,25.37
2022-11-18T06:38:01.825Z,26.63
2022-11-18T06:40:34.448Z,24.93
2022-11-18T06:43:24.268Z,28.20
2022-11-18T06:46:09.314Z,27.20
2022-11-18T06:48:37.614Z,31.00
2022-11-18T06:51:06.374Z,28.40
2022-11-18T06:53:35.274Z,30.03
2022-11-18T06:56:04.757Z,33.17
2022-11-18T06:58:32.848Z,32.23
2022-11-18T07:01:10.445Z,28.10
2022-11-18T07:03:38.606Z,31.97
2022-11-18T07:06:07.201Z,30.37
2022-11-18T07:08:36.229Z,32.83
2022-11-18T07:11:05.277Z,32.10
2022-11-18T07:13:33.815Z,30.57
2022-11-18T07:16:08.426Z,31.47
2022-11-18T07:18:38.514Z,29.97
2022-11-18T07:21:08.974Z,30.63
2022-11-18T07:23:37.227Z,32.00
2022-11-18T07:26:05.925Z,30.43
2022-11-18T07:28:34.358Z,29.63
2022-11-18T07:31:03.796Z,31.03
2022-11-18T07:33:34.713Z,31.90
2022-11-18T07:36:03.823Z,29.40
2022-11-18T07:38:32.071Z,29.83
2022-11-18T07:41:06.054Z,30.23
2022-11-18T07:43:35.075Z,28.00
2022-11-18T07:46:11.679Z,31.47
2022-11-18T07:48:41.443Z,30.93
2022-11-18T07:51:09.755Z,35.23
2022-11-18T07:53:38.418Z,33.10
2022-11-18T07:56:07.540Z,31.33
2022-11-18T07:58:35.639Z,29.73
2022-11-18T08:01:09.640Z,33.20
2022-11-18T08:03:38.241Z,33.13
2022-11-18T08:06:10.519Z,29.90
2022-11-18T08:08:38.891Z,33.13
2022-11-18T08:11:09.444Z,29.07
2022-11-18T08:13:37.598Z,34.70
2022-11-18T08:16:06.900Z,28.57
2022-11-18T08:18:35.197Z,32.77
2022-11-18T08:21:03.970Z,32.83
2022-11-18T08:23:37.497Z,34.00
2022-11-18T08:26:11.791Z,33.10
2022-11-18T08:28:39.945Z,34.10
2022-11-18T08:31:12.113Z,35.07
2022-11-18T08:33:40.389Z,32.63
2022-11-18T08:36:09.806Z,31.70
2022-11-18T08:38:39.294Z,32.40
2022-11-18T08:41:07.809Z,31.70
2022-11-18T08:43:37.273Z,31.30
2022-11-18T08:46:05.343Z,32.60
2022-11-18T08:48:33.422Z,30.27
2022-11-18T08:51:02.277Z,31.07
2022-11-18T08:53:30.489Z,34.40
2022-11-18T08:56:01.722Z,32.40
2022-11-18T08:58:29.938Z,34.77
2022-11-18T09:00:58.097Z,34.33
2022-11-18T09:03:26.189Z,33.80
2022-11-18T09:05:54.182Z,36.43
2022-11-18T09:08:26.415Z,31.83
2022-11-18T09:10:54.478Z,35.17
2022-11-18T09:14:20.482Z,35.93
2022-11-18T09:16:12.510Z,49.63
2022-11-18T09:18:40.613Z,38.67
2022-11-18T09:21:10.662Z,36.50
2022-11-18T09:23:39.670Z,36.70
2022-11-18T09:26:09.560Z,35.00
2022-11-18T09:28:39.202Z,31.17
2022-11-18T09:31:08.557Z,36.53
2022-11-18T09:33:37.791Z,33.33
2022-11-18T09:36:07.128Z,33.60
2022-11-18T09:38:35.131Z,32.27
2022-11-18T09:41:09.310Z,31.07
2022-11-18T09:43:50.535Z,35.13
2022-11-18T09:46:27.707Z,32.17
2022-11-18T09:49:21.462Z,34.70
2022-11-18T09:51:51.774Z,35.73
2022-11-18T09:54:23.106Z,32.30
2022-11-18T09:56:53.486Z,34.27
2022-11-18T09:59:26.101Z,33.53
2022-11-18T10:01:57.689Z,32.80
2022-11-18T10:04:25.837Z,37.37
2022-11-18T10:06:53.943Z,37.10
2022-11-18T10:09:31.647Z,38.13
2022-11-18T10:12:10.084Z,33.90
2022-11-18T10:14:53.430Z,36.37
2022-11-18T10:17:32.735Z,34.80
2022-11-18T10:20:15.644Z,35.27
2022-11-18T10:22:49.508Z,36.53
2022-11-18T10:25:19.162Z,36.63
2022-11-18T10:27:49.527Z,33.37
2022-11-18T10:30:21.179Z,35.17
2022-11-18T10:33:00.467Z,35.87
2022-11-18T10:35:31.139Z,36.47
2022-11-18T10:38:08.992Z,36.80
2022-11-18T10:40:41.358Z,36.73
2022-11-18T10:43:11.453Z,39.50
2022-11-18T10:45:40.987Z,40.67
2022-11-18T10:48:11.326Z,37.10
2022-11-18T10:50:41.130Z,41.93
2022-11-18T10:53:30.393Z,39.30
2022-11-18T10:56:00.492Z,40.93
2022-11-18T10:58:32.346Z,45.20
2022-11-18T11:01:09.468Z,41.73
2022-11-18T11:03:39.927Z,38.93
2022-11-18T11:06:30.705Z,39.17
2022-11-18T11:09:05.449Z,44.10
2022-11-18T11:11:35.522Z,40.73
2022-11-18T11:14:12.908Z,38.90
2022-11-18T11:16:48.171Z,43.27
2022-11-18T11:19:21.409Z,39.27
2022-11-18T11:21:49.685Z,39.40
2022-11-18T11:24:17.827Z,38.83
2022-11-18T11:30:03.341Z,38.37
2022-11-18T11:32:51.813Z,40.90
2022-11-18T11:35:24.313Z,41.90
2022-11-18T11:37:55.164Z,39.47
2022-11-18T11:40:32.699Z,40.43
2022-11-18T11:43:10.498Z,46.23
2022-11-18T11:45:47.975Z,45.57
2022-11-18T11:48:32.399Z,42.73
2022-11-18T11:51:05.144Z,42.50
2022-11-18T11:53:59.060Z,42.77
2022-11-18T11:56:35.122Z,39.23
2022-11-18T11:59:21.300Z,42.83
2022-11-18T12:02:16.342Z,41.00
2022-11-18T12:04:50.805Z,43.83
2022-11-18T12:07:22.988Z,41.13
2022-11-18T12:10:09.152Z,45.80
2022-11-18T12:12:45.340Z,45.03
2022-11-18T12:15:36.726Z,42.70
2022-11-18T12:18:13.573Z,43.60
2022-11-18T12:20:45.939Z,40.20
2022-11-18T12:23:19.286Z,43.87
2022-11-18T12:26:03.140Z,44.17
2022-11-18T12:28:34.390Z,43.47
2022-11-18T12:31:28.489Z,39.97
2022-11-18T12:33:58.625Z,43.17
2022-11-18T12:36:29.540Z,40.27
2022-11-18T12:38:58.999Z,41.00
2022-11-18T12:42:13.419Z,45.13
2022-11-18T12:44:43.316Z,39.93
2022-11-18T12:47:12.580Z,39.83
2022-11-18T12:50:12.659Z,41.23
2022-11-18T12:52:50.205Z,41.27
2022-11-18T12:55:23.555Z,41.13
2022-11-18T12:57:51.692Z,39.50
2022-11-18T13:00:31.169Z,36.97
2022-11-18T13:03:01.300Z,39.50
2022-11-18T13:05:31.709Z,40.33
2022-11-18T13:08:14.341Z,39.83
2022-11-18T13:10:54.774Z,38.27
2022-11-18T13:13:27.377Z,40.13
2022-11-18T13:16:25.913Z,35.07
2022-11-18T13:18:55.107Z,35.83
2022-11-18T13:21:43.087Z,34.13
2022-11-18T13:24:15.124Z,33.30
2022-11-18T13:26:45.010Z,33.43
2022-11-18T13:29:30.612Z,36.43
2022-11-18T13:32:10.655Z,34.40
2022-11-18T13:34:47.005Z,31.20
2022-11-18T13:37:19.133Z,34.23
2022-11-18T13:39:49.832Z,33.70
2022-11-18T13:42:21.070Z,32.10
2022-11-18T13:44:55.194Z,33.23
2022-11-18T13:47:28.804Z,35.17
2022-11-18T13:50:05.826Z,32.33
2022-11-18T13:52:37.926Z,34.03
2022-11-18T13:55:17.430Z,32.73
2022-11-18T13:57:49.391Z,29.93
2022-11-18T14:00:25.919Z,28.67
2022-11-18T14:03:00.829Z,31.57
2022-11-18T14:05:29.377Z,28.37
2022-11-18T14:08:02.188Z,31.37
2022-11-18T14:10:39.119Z,30.07
2022-11-18T14:13:21.550Z,38.50
2022-11-18T14:15:49.665Z,30.70
2022-11-18T14:18:22.489Z,28.10
2022-11-18T14:20:56.029Z,31.40
2022-11-18T14:23:29.744Z,27.37
2022-11-18T14:26:00.653Z,30.33
2022-11-18T14:28:33.783Z,30.97
2022-11-18T14:31:08.087Z,29.87
2022-11-18T14:33:38.083Z,30.10
2022-11-18T14:36:12.351Z,30.13
2022-11-18T14:38:57.981Z,30.37
2022-11-18T14:41:49.679Z,31.27
2022-11-18T14:44:18.786Z,30.37
2022-11-18T14:46:49.791Z,30.67
2022-11-18T14:49:21.987Z,31.80
2022-11-18T14:51:50.680Z,31.37
2022-11-18T14:54:25.920Z,31.37
2022-11-18T14:56:59.204Z,30.83
2022-11-18T14:59:27.305Z,31.27
2022-11-18T15:01:56.531Z,30.73
2022-11-18T15:04:25.620Z,30.97
2022-11-18T15:06:53.952Z,34.07
2022-11-18T15:09:22.165Z,31.87
2022-11-18T15:11:50.284Z,33.13
2022-11-18T15:14:19.969Z,36.27
2022-11-18T15:16:48.463Z,32.57
2022-11-18T15:19:17.539Z,33.60
2022-11-18T15:21:46.685Z,37.30
2022-11-18T15:24:14.957Z,35.33
2022-11-18T15:26:46.803Z,37.10
2022-11-18T15:29:18.379Z,37.93
2022-11-18T15:31:48.582Z,35.00
2022-11-18T15:34:18.241Z,33.73
2022-11-18T15:36:46.669Z,34.23
2022-11-18T15:39:14.796Z,35.93
2022-11-18T15:41:43.888Z,36.87
2022-11-18T15:44:12.573Z,34.47
2022-11-18T15:46:41.137Z,36.53
2022-11-18T15:49:13.856Z,34.47
2022-11-18T15:51:42.275Z,32.17
2022-11-18T15:54:10.269Z,36.83
2022-11-18T15:56:39.769Z,35.93
2022-11-18T15:59:10.549Z,39.47
2022-11-18T16:01:40.647Z,34.43
2022-11-18T16:04:12.117Z,35.90
2022-11-18T16:06:43.334Z,38.93
2022-11-18T16:09:12.471Z,35.73
2022-11-18T16:11:58.076Z,36.23
2022-11-18T16:14:26.383Z,35.97
2022-11-18T16:16:56.604Z,34.60
2022-11-18T16:19:27.386Z,35.80
2022-11-18T16:21:57.339Z,36.70
2022-11-18T16:24:27.226Z,35.40
2022-11-18T16:26:55.600Z,34.93
2022-11-18T16:29:24.287Z,39.17
2022-11-18T16:31:54.891Z,35.03
2022-11-18T16:34:26.240Z,35.13
2022-11-18T16:36:55.920Z,38.73
2022-11-18T16:39:26.216Z,38.73
2022-11-18T16:41:57.599Z,37.43
2022-11-18T16:44:27.714Z,40.57
2022-11-18T16:46:57.481Z,36.67
2022-11-18T16:49:28.479Z,34.70
2022-11-18T16:51:58.096Z,34.50
2022-11-18T16:54:28.058Z,33.27
2022-11-18T16:56:57.932Z,35.60
2022-11-18T16:59:27.082Z,38.10
2022-11-18T17:01:56.668Z,35.57
2022-11-18T17:04:27.328Z,32.63
2022-11-18T17:06:56.461Z,35.27
2022-11-18T17:09:25.703Z,33.63
2022-11-18T17:11:55.253Z,36.40
2022-11-18T17:14:23.815Z,33.30
2022-11-18T17:16:53.166Z,32.10
2022-11-18T17:19:23.375Z,32.93
2022-11-18T17:21:53.434Z,31.87
2022-11-18T17:24:24.125Z,30.83
2022-11-18T17:26:53.071Z,28.17
2022-11-18T17:29:21.679Z,32.47
2022-11-18T17:31:50.187Z,29.80
2022-11-18T17:34:18.988Z,29.23
2022-11-18T17:36:47.210Z,28.63
2022-11-18T17:39:17.601Z,29.77
2022-11-18T17:42:03.394Z,30.83
2022-11-18T17:44:31.440Z,29.93
2022-11-18T17:46:59.413Z,29.03
2022-11-18T17:49:27.448Z,29.97
2022-11-18T17:51:55.527Z,30.27
2022-11-18T17:54:25.129Z,28.73
2022-11-18T17:56:53.341Z,28.77
2022-11-18T17:59:23.102Z,26.27
2022-11-18T18:01:57.537Z,24.93
2022-11-18T18:04:27.285Z,26.23
2022-11-18T18:06:56.173Z,26.83
2022-11-18T18:09:31.456Z,24.97
2022-11-18T18:12:00.692Z,26.90
2022-11-18T18:14:27.828Z,25.17
2022-11-18T18:16:55.938Z,22.60
2022-11-18T18:19:24.786Z,24.67
2022-11-18T18:21:53.401Z,21.67
2022-11-18T18:24:22.238Z,22.20
2022-11-18T18:26:52.005Z,23.60
2022-11-18T18:29:20.168Z,20.97
2022-11-18T18:31:48.252Z,22.27
2022-11-18T18:34:16.773Z,18.80
2022-11-18T18:36:45.411Z,20.07
2022-11-18T18:39:13.521Z,17.77
2022-11-18T18:41:41.661Z,19.40
2022-11-18T18:44:15.356Z,17.77
2022-11-18T18:46:45.571Z,21.33
2022-11-18T18:49:20.198Z,15.43
2022-11-18T18:51:50.155Z,15.43
2022-11-18T18:54:20.652Z,15.87
2022-11-18T18:56:48.965Z,17.53
2022-11-18T18:59:18.386Z,17.33
2022-11-18T19:01:46.578Z,15.53
2022-11-18T19:04:15.892Z,15.80
2022-11-18T19:06:53.625Z,16.73
2022-11-18T19:09:26.519Z,16.10
2022-11-18T19:12:12.132Z,17.10
2022-11-18T19:14:41.850Z,22.27
2022-11-18T19:17:11.957Z,23.47
2022-11-18T19:19:58.971Z,18.30
2022-11-18T19:22:27.288Z,35.73
2022-11-18T19:24:55.605Z,30.63
2022-11-18T19:27:24.710Z,14.77
2022-11-18T19:29:54.127Z,14.63
2022-11-18T19:32:22.200Z,15.60
2022-11-18T19:34:50.250Z,15.30
2022-11-18T19:37:18.323Z,19.67
2022-11-18T19:39:46.720Z,20.83
2022-11-18T19:42:14.823Z,15.53
2022-11-18T19:44:42.834Z,13.47
2022-11-18T19:47:12.235Z,15.57
2022-11-18T19:49:40.239Z,11.70
2022-11-18T19:52:08.237Z,11.27
2022-11-18T19:54:36.365Z,11.87
2022-11-18T19:57:04.682Z,11.07
2022-11-18T19:59:32.712Z,11.20
2022-11-18T20:02:00.715Z,11.70
2022-11-18T20:04:30.264Z,12.53
2022-11-18T20:06:58.346Z,11.47
2022-11-18T20:09:26.566Z,12.33
2022-11-18T20:11:55.678Z,10.87
2022-11-18T20:14:23.897Z,12.87
2022-11-18T20:16:52.682Z,10.83
2022-11-18T20:19:21.091Z,11.20
2022-11-18T20:21:50.695Z,9.37
2022-11-18T20:24:19.831Z,11.77
2022-11-18T20:26:48.706Z,10.90
2022-11-18T20:29:17.174Z,11.40
2022-11-18T20:31:45.579Z,11.33
2022-11-18T20:34:15.313Z,10.97
2022-11-18T20:36:43.767Z,12.17
2022-11-18T20:39:15.695Z,12.17
2022-11-18T20:42:03.963Z,10.80
2022-11-18T20:44:32.015Z,11.57
2022-11-18T20:47:00.206Z,11.23
2022-11-18T20:49:28.242Z,10.10
2022-11-18T20:51:56.278Z,12.10
2022-11-18T20:54:25.726Z,10.03
2022-11-18T20:56:53.824Z,11.97
2022-11-18T20:59:21.854Z,8.37
2022-11-18T21:01:50.090Z,8.77
2022-11-18T21:04:18.279Z,10.87
2022-11-18T21:06:46.485Z,11.53
2022-11-18T21:09:14.567Z,9.87
2022-11-18T21:11:43.947Z,10.97
2022-11-18T21:14:24.315Z,12.03
2022-11-18T21:16:54.088Z,11.93
2022-11-18T21:19:22.503Z,13.00
2022-11-18T21:21:52.651Z,11.47
2022-11-18T21:24:22.985Z,13.47
2022-11-18T21:26:54.699Z,13.23
2022-11-18T21:29:24.457Z,12.77
2022-11-18T21:31:53.097Z,10.07
2022-11-18T21:34:22.271Z,10.03
2022-11-18T21:36:54.717Z,11.27
2022-11-18T21:39:23.913Z,14.67
2022-11-18T21:41:57.629Z,13.47
2022-11-18T21:44:27.896Z,11.50
2022-11-18T21:46:56.725Z,13.43
2022-11-18T21:49:24.750Z,12.47
2022-11-18T21:51:52.769Z,10.73
2022-11-18T21:54:20.822Z,11.90
2022-11-18T21:56:49.327Z,11.53
2022-11-18T21:59:19.205Z,11.57
2022-11-18T22:01:47.431Z,11.60
2022-11-18T22:04:35.860Z,11.37
2022-11-18T22:07:05.297Z,12.93
2022-11-18T22:09:36.837Z,11.20
2022-11-18T22:12:06.965Z,13.33
2022-11-18T22:14:37.422Z,11.53
2022-11-18T22:17:06.010Z,11.83
2022-11-18T22:19:34.389Z,12.17
2022-11-18T22:22:02.780Z,11.67
2022-11-18T22:24:31.064Z,10.60
2022-11-18T22:26:59.276Z,12.07
2022-11-18T22:29:27.293Z,14.43
2022-11-18T22:31:57.256Z,11.60
2022-11-18T22:34:25.322Z,13.53
2022-11-18T22:36:53.397Z,14.90
2022-11-18T22:39:21.835Z,11.37
2022-11-18T22:42:07.403Z,11.67
2022-11-18T22:44:35.960Z,14.93
2022-11-18T22:47:05.421Z,12.07
2022-11-18T22:49:33.623Z,13.70
2022-11-18T22:52:01.916Z,12.43
2022-11-18T22:54:39.347Z,12.40
2022-11-18T22:57:08.806Z,12.27
2022-11-18T22:59:37.090Z,13.20
2022-11-18T23:02:07.507Z,13.77
2022-11-18T23:04:35.708Z,13.33
2022-11-18T23:07:03.885Z,12.53
2022-11-18T23:09:32.010Z,14.23
2022-11-18T23:12:17.508Z,14.23
2022-11-18T23:14:45.556Z,12.43
2022-11-18T23:17:15.998Z,12.33
2022-11-18T23:19:44.278Z,13.53
2022-11-18T23:22:12.892Z,11.83
2022-11-18T23:24:41.359Z,16.57
2022-11-18T23:27:09.462Z,15.10
2022-11-18T23:29:37.544Z,15.33
2022-11-18T23:32:06.239Z,16.10
2022-11-18T23:34:35.609Z,12.57
2022-11-18T23:37:03.673Z,13.03
2022-11-18T23:39:31.697Z,13.93
2022-11-18T23:41:59.782Z,14.03
2022-11-18T23:44:41.618Z,14.70
2022-11-18T23:47:09.692Z,15.73
2022-11-18T23:49:39.224Z,13.17
2022-11-18T23:52:07.235Z,14.53
2022-11-18T23:54:35.260Z,13.77
2022-11-18T23:57:05.359Z,13.07
2022-11-18T23:59:34.214Z,14.33
